Saint Louis, MO (63114)

7:52 AM CDT on April 28, 2015 (GMT -0500)
1 Mile South of St. Louis Lambert Airport | | Change Station
CLOSE
Current Station
Personal Weather Station
Location: Woodson Terrace, MO
Elevation: 591 ft
Nearby Weather Stations

Elev 591 ft 38.72 °N, 90.36 °W | Updated 9 seconds ago

Clear
Clear
48.3 °F
Feels Like 47 °F
N
4.0
Wind Variable Wind from NNE
Gusts 7.0 mph

Today
High -- | Low -- °F
--% Chance of Precip.
Yesterday
High -- | Low -- °F
Precip. -- in
6:07 AM 7:50 PM
Waxing Gibbous, 73% visible
Pressure 30.13 in
Visibility 10.0 miles
Clouds Few 25000 ft
Windchill 47 °F
Dew Point 40 °F
Humidity 74%
Rainfall 0.00 in
Snow Depth Not available.
UV 0 out of 12
Pollen 9.70 out of 12
Air Quality Not available.
Flu Activity Local Activity
METAR KSTL 281151Z 03006KT 10SM FEW250 08/04 A3013 RMK AO2 SLP203 T00830039 10111 20061 51008

More Conditions Fewer Conditions

Pressure 30.13 in
Visibility 10.0 miles
Clouds Few 25000 ft
Windchill 47 °F
Dew Point 40 °F
Humidity 74%
Rainfall 0.00 in
Snow Depth Not available.
UV 0 out of 12
Pollen 9.70 out of 12
Air Quality Not available.
Flu Activity Local Activity
METAR KSTL 281151Z 03006KT 10SM FEW250 08/04 A3013 RMK AO2 SLP203 T00830039 10111 20061 51008

More Conditions Fewer Conditions

10-Day Weather Forecast

Almanac

Astronomy

Apr. 28, 2015 Rise Set
Actual Time
Civil Twilight
Nautical Twilight
Astronomical Twilight
Moon
Length of Visible Light
Length of Day
Tomorrow will be .
, % of the Moon is Illuminated

Today's Extremes

State Highs State Lows

Community

WunderPhotos

Upload Photos

1,817,618 photos uploaded!

WunderBlogs® & News

Nearby

Air Quality

  Air Quality AQ Index Pollutant
Not available.

Snow Depth

Station Depth Elevation

Earthquake Activity

City Distance Mag. Time & Date
Minimum magnitude displayed is 2.5.

Coastal Water Temperatures

Place Temperature

Stations

Nearby Weather Stations

Station Location Temp. Windchill Dew Point Humidity Wind Precip. Elev Updated Type